Skip Navigation

Christman Field Latest Observations

Switch to metric unitsOther observation timesWeekly graphs

Date Time
MST
Temp
°F
RH
%
DewPt
°F
Wind
mph
Dir
°
Gust
mph
Dir
°
Press
in Hg
Solar
W/m^2
Prec
in
2018-06-18 19:40 69.6 73.7 60.9 4.3 301 4.8 301 24.781 20.4 0.00
2018-06-18 19:35 70.1 71.4 60.4 4.6 296 5.0 298 24.782 34.1 0.00
2018-06-18 19:30 70.5 68.9 59.8 4.1 299 4.5 298 24.786 45.5 0.00
2018-06-18 19:25 71.2 67.4 59.8 3.1 291 3.9 290 24.791 53.6 0.00
2018-06-18 19:20 71.5 65.3 59.3 2.4 281 2.8 266 24.791 62.8 0.00
2018-06-18 19:15 72.1 63.5 59.1 2.2 296 3.0 309 24.793 69.9 0.00
2018-06-18 19:10 72.9 64.0 60.0 0.6 334 1.8 334 24.793 84.2 0.00
2018-06-18 19:05 73.2 62.3 59.6 0.0 162 0.0 241 24.788 91.7 0.00
2018-06-18 19:00 73.3 59.0 58.1 1.0 241 2.5 231 24.784 106.3 0.00
2018-06-18 18:55 73.0 61.5 59.1 2.6 307 4.6 291 24.782 131.9 0.00
2018-06-18 18:50 73.3 61.9 59.4 2.2 272 3.1 306 24.779 140.4 0.00
2018-06-18 18:45 73.4 60.5 58.9 2.4 298 3.6 313 24.775 160.1 0.00
2018-06-18 18:40 73.3 61.5 59.3 2.9 319 4.1 329 24.772 180.5 0.00
2018-06-18 18:35 72.9 59.5 57.9 1.7 353 2.7 338 24.773 197.9 0.00
2018-06-18 18:30 73.0 58.9 57.8 2.7 342 3.8 344 24.771 164.5 0.00
2018-06-18 18:25 72.9 59.5 58.0 1.5 349 2.1 349 24.773 201.0 0.00
2018-06-18 18:20 72.7 60.9 58.5 0.6 320 1.8 329 24.777 162.4 0.00
2018-06-18 18:15 72.6 59.8 57.8 0.7 328 2.0 39 24.777 183.5 0.00
2018-06-18 18:10 72.2 61.1 58.1 1.1 99 2.5 153 24.777 187.5 0.00
2018-06-18 18:05 72.0 61.6 58.1 2.4 101 4.3 100 24.780 213.9 0.00
2018-06-18 18:00 71.5 64.4 58.8 4.1 150 5.6 137 24.780 212.0 0.00
2018-06-18 17:55 71.2 66.2 59.3 3.8 136 5.2 114 24.778 194.9 0.00
2018-06-18 17:50 71.4 64.4 58.7 5.2 116 6.8 126 24.776 171.1 0.00
2018-06-18 17:45 71.2 64.2 58.6 3.3 127 4.9 113 24.769 197.5 0.00
2018-06-18 17:40 71.7 65.0 59.3 4.9 121 6.8 120 24.768 166.9 0.00
2018-06-18 17:35 72.8 62.6 59.4 4.9 96 8.2 95 24.767 181.2 0.00
2018-06-18 17:30 74.9 58.1 59.2 5.6 114 10.0 83 24.768 404.9 0.00
2018-06-18 17:25 74.8 51.8 56.0 3.9 107 7.5 105 24.767 408.2 0.00
2018-06-18 17:20 74.8 52.0 56.0 4.7 86 7.4 119 24.765 446.2 0.00
2018-06-18 17:15 74.8 51.5 55.8 3.0 97 6.4 105 24.768 421.9 0.00